Terminal Aerodrome Forecast
Issued by NWS

Home | Current Version | Previous Version | Text Only | Print | Product List | Glossary On
Versions: 1 2 3 4 5 6 7 8 9 10 11 12 13 14 15 16 17 18 19 20
000
FTUS45 KTFX 182340
TAFBZN
TAF
KBZN 182340Z 1900/2006 29010KT 6SM -SN SCT030 BKN050
      TEMPO 1900/1903 3SM -SHSN BR BKN020
     FM190600 VRB06KT 4SM -SN BR SCT015 OVC025
      TEMPO 1907/1911 1SM -SN BR BKN010
     FM191500 VRB05KT P6SM VCSH SCT020 BKN040 PROB30 1919/2001
      -SHSN=

USA.gov is the U.S. government's official web portal to all federal, state and local government web resources and services.